Time;durP1;ratioP1;P1;durP2;ratioP2;P2;SDS_P1;SDS_P2;PMS_P1;PMS_P2;Temp;Humidity;BMP_temperature;BMP_pressure;BME280_temperature;BME280_humidity;BME280_pressure;Samples;Min_cycle;Max_cycle;Signal;HPM_P1;HPM_P2
2022/02/09 00:00:38;;;;;;;;;37.75;34.00;;;;;10.04;67.95;102674.03;6308371;22;45390;-80
2022/02/09 00:03:19;;;;;;;;;36.75;32.50;;;;;9.96;67.96;102654.50;6307540;22;46182;-81
2022/02/09 00:06:01;;;;;;;;;38.25;33.50;;;;;10.08;68.22;102677.66;6283582;22;45457;-85
2022/02/09 00:08:27;;;;;;;;;31.00;28.25;;;;;9.98;68.03;102665.97;6284180;22;45217;-83
2022/02/09 00:10:58;;;;;;;;;34.75;32.50;;;;;10.06;68.06;102671.47;6311848;22;45196;-86
2022/02/09 00:13:52;;;;;;;;;39.50;33.25;;;;;9.94;67.94;102659.72;6312221;22;45302;-85
2022/02/09 00:19:00;;;;;;;;;39.50;33.50;;;;;9.97;68.10;102666.81;6310120;22;45393;-87
2022/02/09 00:21:38;;;;;;;;;28.00;25.00;;;;;9.86;68.38;102650.72;6283386;22;45468;-86
2022/02/09 01:37:55;;;;;;;;;30.50;28.50;;;;;9.60;68.51;102636.78;6312480;22;45259;-85
2022/02/09 01:39:46;;;;;;;;;28.50;23.25;;;;;9.43;68.51;102620.44;6311930;22;45448;-85
2022/02/09 01:55:54;;;;;;;;;31.00;27.50;;;;;9.53;68.16;102639.16;6322401;22;44727;-85
2022/02/09 01:58:22;;;;;;;;;26.25;26.00;;;;;9.36;67.95;102612.34;6291368;22;45339;-84
2022/02/09 02:00:48;;;;;;;;;26.75;22.75;;;;;9.41;68.13;102623.88;6315566;22;46362;-85
2022/02/09 02:03:14;;;;;;;;;32.00;28.75;;;;;9.39;67.86;102620.34;6313514;22;45089;-83
2022/02/09 02:05:40;;;;;;;;;22.75;22.25;;;;;9.28;68.17;102607.75;6285313;22;45241;-85
2022/02/09 02:08:09;;;;;;;;;24.50;23.50;;;;;9.38;68.01;102626.41;6313615;22;45380;-84
2022/02/09 02:18:47;;;;;;;;;25.25;24.50;;;;;9.12;67.90;102597.59;6311546;22;45456;-84
2022/02/09 02:26:54;;;;;;;;;29.25;28.00;;;;;9.09;67.99;102586.97;6291702;22;45105;-84
2022/02/09 02:40:23;;;;;;;;;27.50;26.50;;;;;8.99;67.75;102577.91;6309762;22;45138;-84
2022/02/09 03:09:05;;;;;;;;;34.50;28.25;;;;;8.91;67.89;102542.63;6313671;22;45197;-85
2022/02/09 03:14:02;;;;;;;;;29.75;26.00;;;;;8.98;67.68;102549.84;6309606;22;45236;-84
2022/02/09 03:16:35;;;;;;;;;28.25;23.25;;;;;8.81;67.60;102523.03;6279101;22;45264;-84
2022/02/09 03:19:27;;;;;;;;;34.50;26.25;;;;;8.88;67.78;102541.63;6279400;22;45260;-82
2022/02/09 03:21:55;;;;;;;;;28.00;24.75;;;;;8.82;68.00;102534.41;6280923;22;45261;-84
2022/02/09 03:27:44;;;;;;;;;27.75;24.50;;;;;8.78;67.84;102525.56;6266153;22;45524;-85
2022/02/09 03:51:19;;;;;;;;;25.50;21.50;;;;;8.66;67.58;102491.06;6281724;22;45226;-84
2022/02/09 03:53:55;;;;;;;;;21.00;20.25;;;;;8.65;67.36;102491.00;6279333;22;45456;-84
2022/02/09 03:56:27;;;;;;;;;22.25;21.50;;;;;8.70;67.32;102500.78;6278565;22;47975;-85
2022/02/09 03:58:54;;;;;;;;;22.00;20.50;;;;;8.73;67.42;102514.00;6279150;22;45195;-85
2022/02/09 04:01:22;;;;;;;;;30.00;27.00;;;;;8.59;67.26;102486.44;6279747;22;45488;-85
2022/02/09 04:03:48;;;;;;;;;23.50;23.50;;;;;8.77;67.32;102509.78;6282267;22;45298;-85
2022/02/09 04:06:14;;;;;;;;;27.25;23.00;;;;;8.68;66.79;102489.34;6281713;22;45363;-85
2022/02/09 04:08:48;;;;;;;;;21.25;21.25;;;;;8.68;67.03;102491.09;6281529;22;45182;-85
2022/02/09 04:11:22;;;;;;;;;28.25;25.75;;;;;8.60;66.76;102477.69;6281051;22;45351;-83
2022/02/09 04:13:59;;;;;;;;;27.25;25.25;;;;;8.57;66.54;102477.59;6278328;22;45373;-84
2022/02/09 04:38:06;;;;;;;;;23.00;21.50;;;;;8.48;67.25;102498.31;6316628;22;45171;-83
2022/02/09 04:50:53;;;;;;;;;26.00;25.00;;;;;8.39;66.85;102498.88;6314297;22;45200;-85
2022/02/09 04:54:11;;;;;;;;;29.00;28.00;;;;;8.37;67.21;102500.56;6314284;22;45199;-84
2022/02/09 04:56:12;;;;;;;;;32.00;29.50;;;;;8.37;67.10;102505.81;6312824;22;45345;-84
2022/02/09 04:59:02;;;;;;;;;29.50;29.50;;;;;8.29;67.13;102502.91;6285875;22;46829;-84
2022/02/09 05:25:48;;;;;;;;;35.75;34.50;;;;;8.20;67.85;102523.56;6320330;22;45187;-84
2022/02/09 05:28:19;;;;;;;;;29.00;25.00;;;;;8.15;67.59;102520.81;6292118;22;45181;-84
2022/02/09 05:30:47;;;;;;;;;34.00;27.00;;;;;8.16;67.63;102525.22;6288572;22;46994;-84
2022/02/09 05:33:14;;;;;;;;;32.25;29.25;;;;;8.09;67.84;102510.06;6286534;22;45211;-83
2022/02/09 05:35:42;;;;;;;;;35.00;32.25;;;;;8.02;67.33;102496.69;6284914;22;45390;-84
2022/02/09 05:38:09;;;;;;;;;31.75;31.00;;;;;8.12;67.42;102517.16;6284299;22;45311;-84
2022/02/09 05:40:37;;;;;;;;;29.75;26.25;;;;;8.10;67.42;102516.22;6310895;22;47874;-85
2022/02/09 05:43:03;;;;;;;;;22.00;21.00;;;;;8.00;67.23;102495.78;6284666;22;45094;-83
2022/02/09 05:45:42;;;;;;;;;25.50;25.25;;;;;8.04;67.25;102509.03;6284443;22;45215;-84
2022/02/09 05:51:17;;;;;;;;;33.50;28.75;;;;;7.95;67.31;102499.09;6258384;22;46218;-84
2022/02/09 05:56:34;;;;;;;;;31.50;27.25;;;;;7.94;67.65;102506.94;6309973;22;45211;-84
2022/02/09 06:01:39;;;;;;;;;37.50;35.25;;;;;7.86;68.24;102511.91;6313727;22;45414;-84
2022/02/09 06:04:05;;;;;;;;;37.75;36.00;;;;;7.91;68.26;102526.09;6313101;22;45271;-83
2022/02/09 06:06:30;;;;;;;;;43.25;36.50;;;;;7.74;68.04;102490.47;6313183;22;45263;-84
2022/02/09 06:08:57;;;;;;;;;35.50;35.25;;;;;7.73;67.78;102502.69;6285919;22;45188;-84
2022/02/09 06:11:26;;;;;;;;;37.25;34.50;;;;;7.78;67.73;102513.38;6286059;22;47530;-84
2022/02/09 06:21:49;;;;;;;;;38.00;34.75;;;;;7.55;68.11;102512.50;6317716;22;45133;-84
2022/02/09 06:24:14;;;;;;;;;39.50;36.00;;;;;7.56;68.19;102523.88;6288301;22;45162;-84
2022/02/09 06:26:40;;;;;;;;;45.00;36.75;;;;;7.59;68.07;102531.84;6286900;22;45386;-83
2022/02/09 06:29:05;;;;;;;;;49.50;38.00;;;;;7.46;68.11;102520.03;6287904;22;45523;-84
2022/02/09 06:31:35;;;;;;;;;43.00;38.00;;;;;7.49;68.15;102531.53;6288074;22;45937;-84
2022/02/09 06:34:01;;;;;;;;;43.25;38.00;;;;;7.47;67.98;102532.28;6317003;22;45133;-84
2022/02/09 06:36:27;;;;;;;;;42.25;39.50;;;;;7.45;67.99;102532.22;6288376;22;45215;-84
2022/02/09 06:38:52;;;;;;;;;37.50;35.75;;;;;7.29;68.05;102506.28;6314363;22;45176;-85
2022/02/09 06:41:18;;;;;;;;;42.25;38.50;;;;;7.30;68.18;102513.31;6311286;22;45220;-83
2022/02/09 06:43:46;;;;;;;;;45.25;38.50;;;;;7.28;68.10;102508.00;6310811;22;45299;-84
2022/02/09 06:46:13;;;;;;;;;46.25;39.00;;;;;7.21;67.95;102498.13;6282946;22;45385;-84
2022/02/09 06:48:40;;;;;;;;;46.00;38.00;;;;;7.18;67.97;102503.25;6283143;22;45355;-84
2022/02/09 06:51:12;;;;;;;;;52.75;39.75;;;;;7.13;67.99;102491.69;6310535;22;45178;-84
2022/02/09 06:53:46;;;;;;;;;47.25;40.25;;;;;7.13;68.19;102502.19;6310936;22;45386;-84
2022/02/09 06:56:22;;;;;;;;;38.75;36.50;;;;;7.19;67.54;102522.47;6282049;22;45296;-84
2022/02/09 06:58:58;;;;;;;;;48.75;40.75;;;;;7.12;67.76;102521.34;6281753;22;45318;-84
2022/02/09 07:01:24;;;;;;;;;43.25;39.00;;;;;7.02;67.86;102529.66;6282026;22;47245;-84
2022/02/09 07:03:52;;;;;;;;;48.75;40.25;;;;;7.05;67.73;102533.28;6282726;22;45187;-83
2022/02/09 07:06:18;;;;;;;;;42.50;38.00;;;;;6.84;67.48;102508.88;6282523;22;45207;-83
2022/02/09 07:08:43;;;;;;;;;49.50;41.50;;;;;6.79;67.43;102508.72;6312480;22;45187;-83
2022/02/09 07:11:09;;;;;;;;;49.50;43.75;;;;;6.83;67.76;102531.56;6310934;22;45395;-84
2022/02/09 07:13:38;;;;;;;;;47.00;38.00;;;;;6.84;67.67;102535.06;6310709;22;45492;-84
2022/02/09 07:16:05;;;;;;;;;47.75;42.25;;;;;6.79;67.61;102532.28;6288705;22;45222;-82
2022/02/09 07:18:31;;;;;;;;;38.75;37.25;;;;;6.63;67.67;102516.78;6283799;22;45196;-82
2022/02/09 07:21:03;;;;;;;;;44.50;39.00;;;;;6.67;68.03;102530.88;6314162;22;46454;-83
2022/02/09 07:23:35;;;;;;;;;46.75;39.50;;;;;6.71;68.05;102541.53;6287770;22;45693;-85
2022/02/09 07:28:26;;;;;;;;;53.25;43.50;;;;;6.58;67.96;102537.53;6312564;22;45343;-85
2022/02/09 07:30:54;;;;;;;;;51.75;42.00;;;;;6.66;67.91;102553.53;6323215;22;46187;-85
2022/02/09 07:33:20;;;;;;;;;57.25;45.25;;;;;6.46;68.05;102531.75;6288383;22;45176;-86
2022/02/09 07:35:49;;;;;;;;;56.75;47.25;;;;;6.52;67.86;102536.34;6312771;22;45202;-84
2022/02/09 07:38:17;;;;;;;;;54.25;41.50;;;;;6.56;67.97;102548.75;6312200;22;45184;-84
2022/02/09 07:40:43;;;;;;;;;51.75;42.00;;;;;6.44;68.08;102530.78;6283925;22;47140;-84
2022/02/09 07:43:24;;;;;;;;;55.75;43.00;;;;;6.37;68.11;102523.53;6284474;22;45419;-85
2022/02/09 07:53:50;;;;;;;;;40.50;34.00;;;;;6.49;68.58;102538.84;6315212;22;45460;-83
2022/02/09 07:56:21;;;;;;;;;38.75;36.25;;;;;6.39;68.46;102520.16;6284016;22;45282;-83
2022/02/09 07:58:47;;;;;;;;;37.25;36.25;;;;;6.48;68.46;102529.22;6284448;22;45484;-83
2022/02/09 08:01:15;;;;;;;;;44.50;39.50;;;;;6.54;68.49;102537.31;6282379;22;47193;-83
2022/02/09 08:03:41;;;;;;;;;34.25;31.75;;;;;6.43;68.30;102518.56;6281323;22;45747;-83
2022/02/09 08:06:13;;;;;;;;;40.75;36.50;;;;;6.53;68.03;102531.19;6281120;22;45482;-82
2022/02/09 08:08:41;;;;;;;;;48.50;39.00;;;;;6.50;68.11;102512.75;6310151;22;45374;-83
2022/02/09 08:11:15;;;;;;;;;42.25;39.75;;;;;6.39;68.22;102486.16;6309932;22;45379;-84
2022/02/09 08:34:51;;;;;;;;;46.25;39.25;;;;;6.48;68.67;102495.22;6309789;22;45144;-84
2022/02/09 08:37:16;;;;;;;;;52.25;43.25;;;;;6.56;68.59;102510.38;6310308;22;45229;-84
2022/02/09 08:39:42;;;;;;;;;49.00;40.50;;;;;6.59;68.78;102507.88;6309853;22;45195;-86
2022/02/09 08:42:07;;;;;;;;;53.00;43.00;;;;;6.62;68.92;102502.78;6310078;22;45442;-88
2022/02/09 08:44:33;;;;;;;;;50.75;39.75;;;;;6.56;68.50;102480.72;6282155;22;45231;-87
2022/02/09 08:46:58;;;;;;;;;47.25;41.25;;;;;6.52;68.57;102469.25;6282464;22;45188;-84
2022/02/09 08:49:26;;;;;;;;;58.25;43.50;;;;;6.76;68.72;102497.22;6281966;22;45458;-88
2022/02/09 08:51:54;;;;;;;;;53.25;44.50;;;;;6.66;68.84;102479.38;6325446;22;45073;-84
2022/02/09 08:54:25;;;;;;;;;58.25;45.00;;;;;6.81;68.77;102491.31;6300127;22;44831;-87
2022/02/09 08:56:53;;;;;;;;;48.50;41.00;;;;;6.87;68.69;102479.31;6290629;22;45572;-84
2022/02/09 08:59:23;;;;;;;;;54.25;40.00;;;;;6.80;68.79;102454.63;6309079;22;45395;-85
2022/02/09 09:01:57;;;;;;;;;60.25;44.50;;;;;7.01;68.70;102486.00;6310960;22;46071;-92
2022/02/09 09:04:28;;;;;;;;;54.25;44.25;;;;;6.99;68.76;102464.09;6308274;22;45419;-88
2022/02/09 09:07:20;;;;;;;;;54.00;45.00;;;;;7.08;68.78;102469.66;6306695;22;45789;-85
2022/02/09 10:35:24;;;;;;;;;33.00;28.25;;;;;10.54;61.53;102420.94;6308894;22;45238;-83
2022/02/09 10:41:38;;;;;;;;;34.00;30.25;;;;;10.80;60.35;102430.31;6263772;22;45644;-88
2022/02/09 10:44:17;;;;;;;;;31.75;28.75;;;;;10.93;60.30;102418.31;6308030;22;45421;-82
2022/02/09 10:46:49;;;;;;;;;27.75;27.25;;;;;11.10;60.15;102429.22;6310152;22;45359;-84
2022/02/09 10:49:39;;;;;;;;;33.75;31.25;;;;;11.15;59.90;102406.47;6309069;22;45483;-84
2022/02/09 10:52:40;;;;;;;;;28.00;24.75;;;;;11.39;59.33;102414.00;6310182;22;45239;-82
2022/02/09 10:55:48;;;;;;;;;;;;;;;;;;;;;
2022/02/09 10:58:31;;;;;;;;;36.25;34.00;;;;;11.60;59.21;102389.78;6263257;22;71615;-81
2022/02/09 11:01:04;;;;;;;;;35.75;28.00;;;;;11.77;58.40;102395.34;6309310;22;45274;-81
2022/02/09 11:04:06;;;;;;;;;34.00;30.50;;;;;11.96;58.38;102393.97;6280308;22;45740;-82
2022/02/09 11:06:39;;;;;;;;;34.50;29.75;;;;;12.05;57.84;102378.25;6280548;22;48238;-82
2022/02/09 11:09:25;;;;;;;;;29.25;29.00;;;;;12.24;57.35;102390.03;6280527;22;45297;-80
2022/02/09 11:12:12;;;;;;;;;26.50;25.25;;;;;12.31;56.81;102377.81;6280921;22;45438;-81
2022/02/09 11:14:53;;;;;;;;;36.50;29.25;;;;;12.51;56.96;102391.31;6285463;22;45367;-81
2022/02/09 11:17:44;;;;;;;;;;;;;;;;;;;;;
2022/02/09 11:20:18;;;;;;;;;31.75;27.50;;;;;12.71;55.86;102376.63;6309051;22;71983;-80
2022/02/09 11:23:26;;;;;;;;;;;;;;;;;;;;;
2022/02/09 11:26:12;;;;;;;;;;;;;;;;;;;;;
2022/02/09 11:29:18;;;;;;;;;26.75;22.50;;;;;13.11;54.87;102363.94;6309559;22;73826;-83
2022/02/09 11:38:38;;;;;;;;;32.75;28.75;;;;;13.61;53.82;102360.97;6241030;22;45399;-85
2022/02/09 11:41:24;;;;;;;;;28.75;26.00;;;;;13.77;53.48;102348.78;6280901;22;47236;-81
2022/02/09 11:44:05;;;;;;;;;26.25;24.50;;;;;13.83;53.08;102355.88;6308746;22;45412;-85
2022/02/09 11:47:18;;;;;;;;;30.75;29.00;;;;;13.98;52.48;102339.22;6281711;22;45443;-85
2022/02/09 11:57:01;;;;;;;;;22.50;21.25;;;;;14.58;51.49;102343.22;6299156;22;45157;-83
2022/02/09 12:08:53;;;;;;;;;30.50;27.75;;;;;16.08;49.00;102319.66;6308962;22;45326;-82
2022/02/09 12:11:57;;;;;;;;;27.25;26.25;;;;;16.59;48.09;102316.00;6309059;22;45184;-81
2022/02/09 12:15:41;;;;;;;;;29.75;24.25;;;;;17.04;47.51;102308.75;6281470;22;45248;-83
2022/02/09 12:18:52;;;;;;;;;28.75;24.75;;;;;17.55;47.40;102296.88;6309801;22;45460;-85
2022/02/09 12:21:39;;;;;;;;;29.50;26.50;;;;;17.89;46.08;102301.09;6276094;22;45318;-85
2022/02/09 12:24:33;;;;;;;;;;;;;;;;;;;;;
2022/02/09 12:27:22;;;;;;;;;22.00;20.50;;;;;18.57;44.42;102307.47;6309743;22;71539;-85
2022/02/09 12:30:22;;;;;;;;;20.25;19.00;;;;;18.80;42.89;102299.22;6310518;22;46187;-83
2022/02/09 12:33:07;;;;;;;;;21.50;19.25;;;;;19.04;43.20;102291.78;6311348;22;45407;-84
2022/02/09 12:36:20;;;;;;;;;20.00;18.75;;;;;19.25;42.79;102285.25;6285108;22;45303;-84
2022/02/09 12:42:14;;;;;;;;;21.50;21.50;;;;;20.09;42.24;102272.28;6290955;22;46342;-83
2022/02/09 12:45:31;;;;;;;;;;;;;;;;;;;;;
2022/02/09 12:52:19;;;;;;;;;;;;;;;;;;;;;
2022/02/09 12:55:16;;;;;;;;;23.25;22.00;;;;;20.84;39.40;102260.06;6302168;22;46522;-82
2022/02/09 12:58:16;;;;;;;;;;;;;;;;;;;;;
2022/02/09 13:01:17;;;;;;;;;20.75;20.00;;;;;21.09;38.95;102252.34;6308482;22;67797;-83
2022/02/09 13:04:22;;;;;;;;;23.00;21.75;;;;;21.25;38.61;102244.81;6279660;22;46292;-81
2022/02/09 13:06:53;;;;;;;;;18.75;16.75;;;;;21.42;38.03;102247.13;6297519;22;46004;-80
2022/02/09 13:09:40;;;;;;;;;23.50;20.75;;;;;21.56;37.46;102242.31;6307631;22;45460;-79
2022/02/09 13:12:10;;;;;;;;;22.50;20.25;;;;;21.73;37.00;102247.22;6279830;22;45344;-78
2022/02/09 13:14:42;;;;;;;;;21.25;18.75;;;;;21.87;36.89;102242.38;6279284;22;45393;-81
2022/02/09 14:57:21;;;;;;;;;17.75;17.00;;;;;28.75;26.21;102143.44;6301025;22;45322;-82
2022/02/09 15:03:03;;;;;;;;;15.00;12.33;;;;;30.00;24.68;102124.13;6309477;22;45403;-82
2022/02/09 15:11:22;;;;;;;;;12.67;12.00;;;;;31.01;23.31;102108.47;6310086;22;45259;-83
2022/02/09 15:22:45;;;;;;;;;;;;;;;;;;;;;
2022/02/09 15:25:35;;;;;;;;;13.00;12.67;;;;;32.58;21.89;102119.06;6306881;22;72637;-86
2022/02/09 15:28:27;;;;;;;;;13.67;12.67;;;;;32.34;20.78;102105.38;6278736;22;47680;-86
2022/02/09 15:31:10;;;;;;;;;17.33;15.00;;;;;32.08;21.31;102109.06;6306503;22;45410;-84
2022/02/09 15:37:43;;;;;;;;;12.33;12.00;;;;;31.56;21.19;102099.16;6307960;22;45394;-83
2022/02/09 15:59:03;;;;;;;;;21.33;17.33;;;;;24.44;25.73;102081.63;6308665;22;45715;-83
2022/02/09 16:22:12;;;;;;;;;18.00;16.67;;;;;19.65;31.81;102065.53;6305434;22;45376;-83
2022/02/09 16:45:09;;;;;;;;;16.75;13.25;;;;;17.47;36.17;102067.06;6218482;22;45331;-83
2022/02/09 16:50:27;;;;;;;;;;;;;;;;;;;;;
2022/02/09 16:53:07;;;;;;;;;19.00;12.67;;;;;16.94;36.87;102068.47;6302427;22;72962;-83
2022/02/09 17:19:00;;;;;;;;;13.75;12.25;;;;;15.71;39.54;102055.94;6307622;22;45411;-86
2022/02/09 17:21:29;;;;;;;;;11.25;9.00;;;;;15.59;39.98;102048.00;6307451;22;45395;-84
2022/02/09 17:24:08;;;;;;;;;14.25;14.25;;;;;15.49;40.28;102041.81;6309248;22;45398;-87
2022/02/09 17:26:52;;;;;;;;;12.50;11.00;;;;;15.38;40.49;102039.22;6280040;22;45252;-87
2022/02/09 17:29:54;;;;;;;;;14.00;12.25;;;;;15.37;40.58;102057.78;6307640;22;45260;-89
2022/02/09 17:32:45;;;;;;;;;14.25;12.25;;;;;15.27;41.24;102046.31;6307032;22;45322;-85
2022/02/09 17:35:29;;;;;;;;;13.00;12.00;;;;;15.14;41.50;102041.91;6279629;22;47353;-82
2022/02/09 17:38:23;;;;;;;;;12.75;12.75;;;;;15.06;41.47;102049.00;6279829;22;45263;-83
2022/02/09 17:59:12;;;;;;;;;12.50;12.50;;;;;14.56;43.69;102079.94;6211551;22;46797;-85
2022/02/09 18:01:52;;;;;;;;;12.25;12.00;;;;;14.47;43.78;102082.53;6281862;22;45482;-85
2022/02/09 18:04:55;;;;;;;;;12.75;12.75;;;;;14.32;44.30;102068.38;6282939;22;45215;-83
2022/02/09 18:07:32;;;;;;;;;14.50;14.50;;;;;14.32;44.17;102073.66;6285089;22;46114;-89
2022/02/09 18:10:13;;;;;;;;;17.25;16.50;;;;;14.29;44.57;102081.59;6278101;22;46768;-83
2022/02/09 18:37:46;;;;;;;;;31.25;27.25;;;;;13.65;47.21;102084.88;6111183;23;45405;-82
2022/02/09 18:38:37;;;;;;;;;33.00;29.75;;;;;13.56;47.75;102087.50;6190140;23;45210;-85
2022/02/09 18:44:24;;;;;;;;;37.25;34.00;;;;;13.32;48.52;102071.50;6331051;22;44543;-84
2022/02/09 18:47:50;;;;;;;;;47.00;36.25;;;;;13.31;48.78;102082.94;6333160;22;45455;-83
2022/02/09 19:05:15;;;;;;;;;41.25;34.00;;;;;12.85;50.27;102049.06;6311354;22;45390;-84
2022/02/09 19:16:40;;;;;;;;;38.75;34.00;;;;;12.65;50.97;102040.13;6310850;22;45372;-84
2022/02/09 19:20:06;;;;;;;;;36.75;31.25;;;;;12.52;51.10;102036.47;6308753;22;45214;-84
2022/02/09 19:28:58;;;;;;;;;46.00;34.50;;;;;12.40;51.87;102047.78;6310890;22;45393;-83
2022/02/09 19:46:29;;;;;;;;;37.50;33.50;;;;;11.95;53.26;102020.06;6309876;22;45290;-85
2022/02/09 19:55:18;;;;;;;;;37.00;36.00;;;;;11.85;54.03;102029.59;6307140;22;45423;-82
2022/02/09 19:57:51;;;;;;;;;35.00;30.50;;;;;11.73;54.14;102012.72;6277900;22;45811;-82
2022/02/09 20:00:39;;;;;;;;;25.75;24.75;;;;;11.76;54.32;102024.22;6279245;22;45743;-82
2022/02/09 20:03:42;;;;;;;;;38.75;34.00;;;;;11.62;54.60;102015.22;6283934;22;45382;-83
2022/02/09 20:06:26;;;;;;;;;38.50;35.00;;;;;11.65;54.32;102029.34;6308214;22;45823;-83
2022/02/09 20:10:12;;;;;;;;;38.75;34.75;;;;;11.48;54.72;102005.38;6279368;22;46893;-83
2022/02/09 20:12:28;;;;;;;;;43.50;37.00;;;;;11.54;54.70;102017.75;6275625;22;45701;-84
2022/02/09 20:15:26;;;;;;;;;43.25;38.50;;;;;11.50;55.24;102020.38;6308615;22;44771;-87
2022/02/09 20:18:10;;;;;;;;;53.00;41.25;;;;;11.38;55.30;102010.53;6307997;22;45596;-83
2022/02/09 20:21:27;;;;;;;;;47.00;38.50;;;;;11.38;55.72;102014.03;6279651;22;47671;-84
2022/02/09 20:27:29;;;;;;;;;;;;;;;;;;;;;
2022/02/09 20:30:01;;;;;;;;;42.75;36.50;;;;;11.18;56.15;102012.91;6306904;22;72717;-85
2022/02/09 20:32:38;;;;;;;;;40.00;35.00;;;;;11.10;56.17;102004.00;6278936;22;46649;-84
2022/02/09 20:38:11;;;;;;;;;;;;;;;;;;;;;
2022/02/09 20:40:58;;;;;;;;;43.50;37.00;;;;;10.99;56.84;102017.00;6305060;22;73973;-83
2022/02/09 20:43:41;;;;;;;;;39.00;34.00;;;;;10.92;56.83;102012.50;6306035;22;45465;-84
2022/02/09 20:46:20;;;;;;;;;47.75;38.50;;;;;10.94;56.88;102018.69;6277746;22;45407;-84
2022/02/09 20:49:24;;;;;;;;;;;;;;;;;;;;;
2022/02/09 20:52:04;;;;;;;;;48.00;39.25;;;;;10.70;57.37;102012.16;6305916;22;71966;-84
2022/02/09 20:54:53;;;;;;;;;;;;;;;;;;;;;
2022/02/09 20:57:29;;;;;;;;;45.25;37.50;;;;;10.67;57.82;102027.91;6301758;22;72719;-83
2022/02/09 21:00:05;;;;;;;;;47.25;38.50;;;;;10.63;57.91;102017.31;6278198;22;45425;-81
2022/02/09 21:09:34;;;;;;;;;;;;;;;;;;;;;
2022/02/09 21:43:56;;;;;;;;;51.75;41.50;;;;;9.70;60.17;102027.81;6305505;22;45431;-83
2022/02/09 21:52:06;;;;;;;;;55.25;44.75;;;;;9.54;60.74;102047.63;6307090;22;46027;-84
2022/02/09 21:56:40;;;;;;;;;50.25;42.25;;;;;9.38;60.95;102059.59;6305354;22;45297;-82
2022/02/09 22:19:58;;;;;;;;;47.25;38.75;;;;;8.59;62.36;102016.56;6303886;22;45405;-84
2022/02/09 22:28:56;;;;;;;;;;;;;;;;;;;;;
2022/02/09 22:55:24;;;;;;;;;52.00;39.00;;;;;8.63;62.94;102000.00;6306619;22;45338;-82
2022/02/09 22:58:02;;;;;;;;;51.00;39.50;;;;;8.63;62.91;101986.91;6278829;22;45737;-83
2022/02/09 23:00:45;;;;;;;;;54.00;41.50;;;;;8.58;63.08;101975.41;6278863;22;47940;-83
2022/02/09 23:07:15;;;;;;;;;51.25;40.25;;;;;8.61;62.98;101962.38;6234360;22;45467;-81
2022/02/09 23:12:44;;;;;;;;;55.00;43.25;;;;;8.77;63.09;101980.25;6233334;22;45909;-81
2022/02/09 23:15:31;;;;;;;;;51.75;42.00;;;;;8.77;62.99;101976.75;6305849;22;45560;-81
2022/02/09 23:56:02;;;;;;;;;48.50;36.00;;;;;8.80;63.31;101966.31;6309320;22;45525;-82
